CA-0485 weather

CLOSED De Lesseps Field
Toronto, Ontario, Canada

Public forecast

Using degrees Celsius for public forecast. Weather courtesy of forecast.io.

METAR (pilot weather report)

Closest report is Lester B. Pearson International Airport, 6.0 nm (11.1 km) WSW. Retrieved 2019/04/20 07:00 UTC (58 minutes ago):

CYYZ 200700Z 02012KT 6SM -RA BR SCT007 OVC014 05/04 A2971 RMK SF3SC5 SLP068

TAF (pilot weather forecast)

Closest forecast is Lester B. Pearson International Airport, 6.0 nm (11.1 km) WSW. Retrieved 2019/04/20 06:45 UTC (1 hour ago):

TAF CYYZ 200543Z 2006/2112 01010G20KT P6SM FEW008 OVC015 TEMPO 2006/2009 5SM -RA BR BKN008 OVC015 FM200900 02012G22KT 6SM BR OVC012 TEMPO 2009/2016 3SM -DZ -RA BR OVC008 FM201600 05012KT 6SM -RA BR OVC012 TEMPO 2016/2021 3SM SHRA VCTS BR BKN008 OVC040CB FM202100 06008KT 3SM -SHRA -DZ BR OVC008 FM210000 06005KT 3SM -DZ -SHRA BR BKN006 OVC012 PROB30 2100/2105 1SM -DZ BR OVC003 FM210500 VRB03KT 1SM -DZ BR OVC003 PROB30 2108/2112 1/4SM -DZ FG VV001 RMK NXT FCST BY 200900Z